Time;durP1;ratioP1;P1;durP2;ratioP2;P2;SDS_P1;SDS_P2;PMS_P1;PMS_P2;Temp;Humidity;BMP_temperature;BMP_pressure;BME280_temperature;BME280_humidity;BME280_pressure;Samples;Min_cycle;Max_cycle;Signal;HPM_P1;HPM_P2
2023/02/13 00:01:42;;;;;;;44.10;18.60;;;6.80;99.90;;;;;;4954427;28;20024;-66
2023/02/13 00:04:08;;;;;;;38.10;18.37;;;6.80;99.90;;;;;;4953520;28;20029;-66
2023/02/13 00:06:33;;;;;;;44.17;19.07;;;6.70;99.90;;;;;;4954706;28;23697;-66
2023/02/13 00:08:59;;;;;;;42.67;19.53;;;6.70;99.90;;;;;;4935438;28;20850;-66
2023/02/13 00:11:25;;;;;;;43.50;20.00;;;6.70;99.90;;;;;;4955011;28;20025;-67
2023/02/13 00:13:51;;;;;;;41.93;17.67;;;6.70;99.90;;;;;;4952677;28;20067;-66
2023/02/13 00:16:16;;;;;;;38.87;16.93;;;6.70;99.90;;;;;;4953529;28;20327;-71
2023/02/13 00:18:42;;;;;;;42.93;18.17;;;6.70;99.90;;;;;;4951012;28;20017;-66
2023/02/13 00:21:10;;;;;;;47.03;20.40;;;6.70;99.90;;;;;;4952065;28;20028;-66
2023/02/13 00:23:38;;;;;;;41.85;18.50;;;6.70;99.90;;;;;;4956148;28;20028;-66
2023/02/13 00:26:10;;;;;;;41.55;18.23;;;6.70;99.90;;;;;;4955106;28;20038;-67
2023/02/13 00:28:36;;;;;;;38.88;19.58;;;6.70;99.90;;;;;;4955690;28;23488;-66
2023/02/13 00:31:07;;;;;;;41.83;17.50;;;6.60;99.90;;;;;;4951688;28;20144;-75
2023/02/13 00:33:33;;;;;;;37.38;18.20;;;6.60;99.90;;;;;;4956765;28;20516;-70
2023/02/13 00:36:10;;;;;;;42.33;20.17;;;6.60;99.90;;;;;;4953655;28;20167;-68
2023/02/13 00:38:38;;;;;;;43.33;19.55;;;6.70;99.90;;;;;;4936259;28;20428;-67
2023/02/13 00:41:04;;;;;;;45.65;19.77;;;6.70;99.90;;;;;;4935475;28;20021;-67
2023/02/13 00:43:30;;;;;;;44.22;18.88;;;6.70;99.90;;;;;;4951819;28;20031;-67
2023/02/13 00:45:57;;;;;;;40.13;19.60;;;6.70;99.90;;;;;;4954772;28;20021;-71
2023/02/13 00:48:24;;;;;;;45.80;19.45;;;6.70;99.90;;;;;;4936490;28;20040;-67
2023/02/13 00:50:51;;;;;;;45.30;20.80;;;6.70;99.90;;;;;;4951845;28;20071;-67
2023/02/13 00:53:20;;;;;;;38.70;19.15;;;6.70;99.90;;;;;;4935371;28;20083;-67
2023/02/13 00:55:46;;;;;;;44.72;19.58;;;6.70;99.90;;;;;;4952989;28;20072;-65
2023/02/13 00:58:12;;;;;;;43.67;19.52;;;6.70;99.90;;;;;;4953540;28;20111;-68
2023/02/13 01:00:38;;;;;;;46.03;19.73;;;6.70;99.90;;;;;;4951959;28;20040;-67
2023/02/13 01:03:04;;;;;;;44.97;20.67;;;6.70;99.90;;;;;;4953483;28;20094;-67
2023/02/13 01:05:29;;;;;;;43.43;21.30;;;6.70;99.90;;;;;;4954539;28;20047;-68
2023/02/13 01:07:55;;;;;;;52.60;20.67;;;6.70;99.90;;;;;;4956232;28;20036;-68
2023/02/13 01:10:21;;;;;;;42.03;19.23;;;6.70;99.90;;;;;;4955271;28;23229;-67
2023/02/13 01:12:47;;;;;;;42.47;19.73;;;6.60;99.90;;;;;;4954579;28;20043;-67
2023/02/13 01:15:12;;;;;;;51.77;21.30;;;6.60;99.90;;;;;;4956596;28;20036;-71
2023/02/13 01:17:38;;;;;;;53.87;21.13;;;6.60;99.90;;;;;;4955259;28;20132;-72
2023/02/13 01:20:09;;;;;;;40.63;18.33;;;6.60;99.90;;;;;;4940455;28;20087;-76
2023/02/13 01:22:35;;;;;;;44.55;19.23;;;6.60;99.90;;;;;;4958803;28;20041;-67
2023/02/13 01:25:01;;;;;;;49.75;21.95;;;6.60;99.90;;;;;;4957381;28;20631;-73
2023/02/13 01:27:27;;;;;;;46.27;20.37;;;6.60;99.90;;;;;;4957354;28;20043;-73
2023/02/13 01:29:53;;;;;;;39.85;18.67;;;6.60;99.90;;;;;;4958774;28;20039;-68
2023/02/13 01:32:19;;;;;;;51.10;21.50;;;6.60;99.90;;;;;;4955730;28;20119;-69
2023/02/13 01:34:45;;;;;;;44.80;20.77;;;6.60;99.90;;;;;;4955163;28;20029;-72
2023/02/13 01:37:11;;;;;;;43.57;20.33;;;6.50;99.90;;;;;;4957614;28;20075;-73
2023/02/13 01:39:37;;;;;;;47.47;21.30;;;6.50;99.90;;;;;;4956322;28;20706;-68
2023/02/13 01:42:03;;;;;;;51.60;21.53;;;6.50;99.90;;;;;;4954745;28;20048;-69
2023/02/13 01:44:52;;;;;;;47.97;21.00;;;6.50;99.90;;;;;;4956405;28;20749;-70
2023/02/13 01:47:40;;;;;;;50.00;20.58;;;6.50;99.90;;;;;;4955788;28;20086;-70
2023/02/13 01:50:26;;;;;;;43.88;20.27;;;6.50;99.90;;;;;;4954724;28;20024;-67
2023/02/13 01:53:24;;;;;;;49.50;21.90;;;6.50;99.90;;;;;;4954535;28;20033;-67
2023/02/13 01:55:54;;;;;;;49.28;20.58;;;6.50;99.90;;;;;;4953885;28;20033;-68
2023/02/13 01:58:24;;;;;;;53.58;20.90;;;6.50;99.90;;;;;;4957765;28;20120;-75
2023/02/13 02:00:49;;;;;;;46.75;20.48;;;6.60;99.90;;;;;;4955071;28;20738;-71
2023/02/13 02:03:23;;;;;;;49.63;20.97;;;6.50;99.90;;;;;;4957416;28;20075;-67
2023/02/13 02:05:50;;;;;;;53.42;22.98;;;6.50;99.90;;;;;;4956805;28;20033;-67
2023/02/13 02:08:17;;;;;;;46.58;21.30;;;6.50;99.90;;;;;;4957233;28;21357;-68
2023/02/13 02:10:42;;;;;;;45.67;21.25;;;6.50;99.90;;;;;;4955997;28;20029;-75
2023/02/13 02:13:14;;;;;;;53.80;21.40;;;6.50;99.90;;;;;;4957373;28;20123;-72
2023/02/13 02:15:42;;;;;;;49.70;21.00;;;6.50;99.90;;;;;;4938855;28;20105;-67
2023/02/13 02:18:19;;;;;;;55.97;22.30;;;6.50;99.90;;;;;;4963132;28;20761;-68
2023/02/13 02:21:03;;;;;;;54.03;22.63;;;6.40;99.90;;;;;;4953617;28;21147;-67
2023/02/13 02:23:50;;;;;;;50.90;22.98;;;6.40;99.90;;;;;;4955949;28;23517;-73
2023/02/13 02:26:34;;;;;;;56.00;22.23;;;6.30;99.90;;;;;;4956905;28;20067;-66
2023/02/13 02:28:59;;;;;;;52.33;22.65;;;6.40;99.90;;;;;;4955147;28;20703;-67
2023/02/13 02:31:59;;;;;;;52.50;23.53;;;6.50;99.90;;;;;;4956362;28;21225;-70
2023/02/13 02:34:45;;;;;;;55.25;21.35;;;6.50;99.90;;;;;;4955794;28;21046;-67
2023/02/13 02:37:20;;;;;;;47.53;20.40;;;6.50;99.90;;;;;;4959708;28;20017;-71
2023/02/13 02:40:24;;;;;;;49.80;21.13;;;6.40;99.90;;;;;;4959022;28;20996;-67
2023/02/13 02:43:00;;;;;;;56.92;22.08;;;6.40;99.90;;;;;;4957779;28;20086;-67
2023/02/13 02:45:26;;;;;;;;;;;6.40;99.90;;;;;;4956106;28;20020;-73
2023/02/13 02:51:20;;;;;;;53.38;22.17;;;6.40;99.90;;;;;;4958049;28;20032;-67
2023/02/13 02:57:21;;;;;;;43.40;19.20;;;6.30;99.90;;;;;;4957383;28;20094;-66
2023/02/13 03:08:07;;;;;;;51.85;20.13;;;6.30;99.90;;;;;;4957750;28;20931;-68
2023/02/13 03:13:43;;;;;;;48.25;20.83;;;6.50;99.90;;;;;;4959537;28;20086;-67
2023/02/13 03:24:57;;;;;;;44.87;20.30;;;6.30;99.90;;;;;;4942160;28;20148;-66
2023/02/13 03:30:50;;;;;;;44.20;19.77;;;6.20;99.90;;;;;;4961338;28;20068;-67
2023/02/13 03:33:27;;;;;;;53.33;19.45;;;6.20;99.90;;;;;;4957553;28;20078;-67
2023/02/13 03:39:22;;;;;;;47.05;18.65;;;6.30;99.90;;;;;;4960191;28;20102;-67
2023/02/13 03:42:11;;;;;;;41.03;18.08;;;6.30;99.90;;;;;;4954451;28;20584;-77
2023/02/13 03:47:42;;;;;;;42.42;18.92;;;6.30;99.90;;;;;;4957273;28;20032;-67
2023/02/13 03:50:11;;;;;;;41.38;17.90;;;6.30;99.90;;;;;;4937590;28;21160;-67
2023/02/13 03:52:39;;;;;;;50.97;20.13;;;6.30;99.90;;;;;;4956719;28;20110;-76
2023/02/13 04:00:49;;;;;;;40.15;17.58;;;6.40;99.90;;;;;;4957517;28;20032;-67
2023/02/13 04:03:49;;;;;;;39.30;17.85;;;6.30;99.90;;;;;;4960346;28;20944;-76
2023/02/13 04:06:26;;;;;;;44.17;18.83;;;6.30;99.90;;;;;;4917453;28;20694;-66
2023/02/13 04:08:52;;;;;;;48.20;19.33;;;6.30;99.90;;;;;;4957959;28;20028;-73
2023/02/13 04:11:32;;;;;;;50.53;19.50;;;6.40;99.90;;;;;;4958112;28;21422;-72
2023/02/13 04:14:00;;;;;;;44.33;18.25;;;6.30;99.90;;;;;;4958686;28;23405;-70
2023/02/13 04:16:34;;;;;;;41.60;18.00;;;6.30;99.90;;;;;;4957713;28;20111;-70
2023/02/13 04:19:00;;;;;;;49.05;19.85;;;6.30;99.90;;;;;;4957248;28;20147;-67
2023/02/13 04:21:26;;;;;;;45.70;17.70;;;6.40;99.90;;;;;;4955056;28;21756;-66
2023/02/13 04:23:52;;;;;;;46.03;18.57;;;6.40;99.90;;;;;;4955034;28;20138;-67
2023/02/13 04:26:21;;;;;;;46.60;16.77;;;6.40;99.90;;;;;;4952289;28;20047;-68
2023/02/13 04:28:47;;;;;;;45.72;17.27;;;6.40;99.90;;;;;;4957907;28;20033;-76
2023/02/13 04:31:13;;;;;;;41.63;17.33;;;6.40;99.90;;;;;;4955068;28;20130;-68
2023/02/13 04:33:39;;;;;;;45.83;18.13;;;6.40;99.90;;;;;;4954850;28;20462;-68
2023/02/13 04:36:05;;;;;;;36.07;16.27;;;6.40;99.90;;;;;;4954895;28;20021;-66
2023/02/13 04:38:31;;;;;;;40.73;16.93;;;6.50;99.90;;;;;;4954206;28;20013;-66
2023/02/13 04:40:57;;;;;;;39.87;16.17;;;6.50;99.90;;;;;;4957846;28;20085;-75
2023/02/13 04:43:24;;;;;;;40.73;17.10;;;6.50;99.90;;;;;;4958428;28;20116;-76
2023/02/13 04:45:50;;;;;;;40.58;16.02;;;6.50;99.90;;;;;;4955649;28;20057;-67
2023/02/13 04:48:16;;;;;;;40.15;15.35;;;6.50;99.90;;;;;;4954734;28;20035;-66
2023/02/13 04:50:42;;;;;;;41.00;16.73;;;6.50;99.90;;;;;;4957095;28;20021;-66
2023/02/13 04:53:07;;;;;;;43.95;16.23;;;6.50;99.90;;;;;;4957818;28;23728;-66
2023/02/13 04:55:33;;;;;;;36.87;15.57;;;6.50;99.90;;;;;;4959569;28;20025;-68
2023/02/13 04:57:59;;;;;;;38.90;15.57;;;6.50;99.90;;;;;;4960410;28;20130;-68
2023/02/13 05:00:27;;;;;;;38.37;15.73;;;6.50;99.90;;;;;;4961205;28;20587;-72
2023/02/13 05:02:52;;;;;;;37.90;14.80;;;6.50;99.90;;;;;;4960611;28;20545;-67
2023/02/13 05:05:19;;;;;;;38.90;15.07;;;6.60;99.90;;;;;;4964173;28;20031;-75
2023/02/13 05:07:45;;;;;;;39.22;16.08;;;6.50;99.90;;;;;;4959532;28;20029;-74
2023/02/13 05:10:11;;;;;;;34.00;15.20;;;6.50;99.90;;;;;;4964154;28;20051;-67
2023/02/13 05:12:37;;;;;;;37.58;14.98;;;6.50;99.90;;;;;;4942921;28;20032;-67
2023/02/13 05:15:04;;;;;;;38.83;14.50;;;6.50;99.90;;;;;;4961655;28;20079;-67
2023/02/13 05:17:30;;;;;;;33.53;13.15;;;6.50;99.90;;;;;;4959747;28;20043;-73
2023/02/13 05:19:56;;;;;;;37.47;15.33;;;6.60;99.90;;;;;;4951697;28;20029;-75
2023/02/13 05:25:06;;;;;;;32.67;14.55;;;6.60;99.90;;;;;;4940964;28;21916;-68
2023/02/13 05:27:32;;;;;;;35.50;13.67;;;6.60;99.90;;;;;;4923447;28;20040;-67
2023/02/13 05:29:57;;;;;;;37.60;15.10;;;6.60;99.90;;;;;;4945253;28;20052;-66
2023/02/13 05:32:23;;;;;;;37.27;14.20;;;6.60;99.90;;;;;;4940754;28;20036;-67
2023/02/13 05:34:49;;;;;;;36.13;15.10;;;6.60;99.90;;;;;;4925429;28;20070;-66
2023/02/13 05:37:14;;;;;;;38.27;14.73;;;6.60;99.90;;;;;;4939899;28;20024;-75
2023/02/13 05:39:40;;;;;;;35.10;13.90;;;6.60;99.90;;;;;;4939849;28;20024;-75
2023/02/13 05:42:06;;;;;;;36.17;14.27;;;6.60;99.90;;;;;;4955893;28;20705;-76
2023/02/13 05:44:31;;;;;;;36.43;14.77;;;6.60;99.90;;;;;;4950408;28;20647;-67
2023/02/13 05:46:57;;;;;;;32.50;13.40;;;6.70;99.90;;;;;;4958650;28;20449;-76
2023/02/13 05:49:23;;;;;;;28.83;13.17;;;6.60;99.90;;;;;;5039852;28;20104;-71
2023/02/13 05:51:51;;;;;;;33.27;13.80;;;6.70;99.90;;;;;;5051292;28;20087;-72
2023/02/13 05:54:17;;;;;;;37.38;13.80;;;6.70;99.90;;;;;;5049458;28;20028;-67
2023/02/13 05:56:43;;;;;;;40.08;14.48;;;6.70;99.90;;;;;;5047389;28;20032;-73
2023/02/13 05:59:09;;;;;;;29.77;12.13;;;6.70;99.90;;;;;;5039764;28;20029;-70
2023/02/13 06:01:34;;;;;;;29.33;13.47;;;6.60;99.90;;;;;;5054476;28;20025;-69
2023/02/13 06:04:00;;;;;;;35.90;14.07;;;6.70;99.90;;;;;;5037143;28;20327;-68
2023/02/13 06:06:26;;;;;;;38.50;14.90;;;6.70;99.90;;;;;;5053595;28;20319;-70
2023/02/13 06:08:51;;;;;;;34.43;14.30;;;6.70;99.90;;;;;;5045096;28;20790;-68
2023/02/13 06:11:18;;;;;;;41.97;15.37;;;6.70;99.90;;;;;;5051950;28;20049;-73
2023/02/13 06:13:43;;;;;;;35.95;13.98;;;6.70;99.90;;;;;;5052060;28;20481;-68
2023/02/13 06:16:10;;;;;;;31.40;13.37;;;6.70;99.90;;;;;;5049592;28;20033;-70
2023/02/13 06:18:36;;;;;;;;;;;6.70;99.90;;;;;;4961460;28;20425;-67
2023/02/13 06:21:02;;;;;;;33.67;13.57;;;6.70;99.90;;;;;;4938485;28;20651;-76
2023/02/13 06:23:29;;;;;;;32.45;13.63;;;6.70;99.90;;;;;;4934416;28;21005;-67
2023/02/13 06:25:54;;;;;;;33.80;14.50;;;6.70;99.90;;;;;;4955055;28;20473;-67
2023/02/13 06:28:20;;;;;;;34.70;14.43;;;6.70;99.90;;;;;;4953328;28;20274;-67
2023/02/13 06:30:47;;;;;;;31.88;13.32;;;6.70;99.90;;;;;;4952686;28;20068;-67
2023/02/13 06:33:14;;;;;;;31.63;13.00;;;6.60;99.90;;;;;;4955258;28;20044;-67
2023/02/13 06:35:39;;;;;;;33.80;13.65;;;6.60;99.90;;;;;;4952864;28;20032;-67
2023/02/13 06:38:05;;;;;;;37.30;15.33;;;6.70;99.90;;;;;;4953070;28;20037;-76
2023/02/13 06:40:31;;;;;;;32.83;13.07;;;6.60;99.90;;;;;;4936345;28;20032;-67
2023/02/13 06:42:56;;;;;;;37.73;14.73;;;6.70;99.90;;;;;;4954530;28;20046;-67
2023/02/13 06:45:22;;;;;;;35.77;13.70;;;6.70;99.90;;;;;;4954020;28;20069;-67
2023/02/13 06:47:48;;;;;;;37.03;14.93;;;6.70;99.90;;;;;;4954478;28;20056;-66
2023/02/13 06:50:15;;;;;;;31.13;13.20;;;6.70;99.90;;;;;;4953814;28;24098;-67
2023/02/13 06:52:46;;;;;;;33.90;14.10;;;6.70;99.90;;;;;;4935279;28;20033;-67
2023/02/13 06:55:12;;;;;;;37.97;15.43;;;6.70;99.90;;;;;;4935329;28;20032;-69
2023/02/13 06:57:38;;;;;;;33.67;13.85;;;6.70;99.90;;;;;;4953531;28;20738;-67
2023/02/13 07:00:04;;;;;;;35.90;14.23;;;6.70;99.90;;;;;;4951083;28;20450;-67
2023/02/13 07:02:31;;;;;;;35.97;13.73;;;6.60;99.90;;;;;;4936227;28;20028;-73
2023/02/13 07:04:57;;;;;;;37.90;14.13;;;6.60;99.90;;;;;;4956093;28;20118;-72
2023/02/13 07:07:23;;;;;;;33.40;13.73;;;6.70;99.90;;;;;;4954820;28;20039;-66
2023/02/13 07:09:49;;;;;;;34.13;13.80;;;6.70;99.90;;;;;;4953482;28;20033;-73
2023/02/13 07:12:14;;;;;;;36.40;14.53;;;6.70;99.90;;;;;;4953469;28;20284;-67
2023/02/13 07:14:40;;;;;;;35.60;14.20;;;6.70;99.90;;;;;;4955045;28;20055;-67
2023/02/13 07:17:06;;;;;;;40.30;14.60;;;6.60;99.90;;;;;;4950556;28;20116;-66
2023/02/13 07:19:32;;;;;;;29.00;13.03;;;6.60;99.90;;;;;;4955005;28;20120;-67
2023/02/13 07:21:57;;;;;;;38.72;15.27;;;6.60;99.90;;;;;;4951180;28;20037;-67
2023/02/13 07:24:23;;;;;;;32.17;14.20;;;6.60;99.90;;;;;;4952342;28;20041;-67
2023/02/13 07:26:49;;;;;;;37.63;14.37;;;6.60;99.90;;;;;;4951059;28;20024;-67
2023/02/13 07:29:14;;;;;;;36.60;14.60;;;6.60;99.90;;;;;;4952990;28;20032;-68
2023/02/13 07:31:40;;;;;;;46.27;15.33;;;6.70;99.90;;;;;;4952887;28;20058;-72
2023/02/13 07:34:06;;;;;;;32.63;14.13;;;6.70;99.90;;;;;;4951324;28;20309;-75
2023/02/13 07:36:32;;;;;;;33.78;13.93;;;6.80;99.90;;;;;;4933189;28;20170;-77
2023/02/13 07:38:58;;;;;;;32.60;14.77;;;6.70;99.90;;;;;;4954569;28;23747;-66
2023/02/13 07:41:26;;;;;;;39.87;14.80;;;6.70;99.90;;;;;;4952444;28;20145;-69
2023/02/13 07:43:53;;;;;;;38.13;15.07;;;6.80;99.90;;;;;;4951686;28;20017;-68
2023/02/13 07:46:18;;;;;;;36.70;14.77;;;6.80;99.90;;;;;;4953621;28;20021;-67
2023/02/13 07:48:44;;;;;;;37.93;15.50;;;6.80;99.90;;;;;;4952111;28;20040;-67
2023/02/13 07:51:10;;;;;;;43.90;16.00;;;6.80;99.90;;;;;;4949064;28;20052;-67
2023/02/13 07:53:35;;;;;;;35.83;15.30;;;6.80;99.90;;;;;;4951023;28;20543;-67
2023/02/13 07:56:08;;;;;;;34.07;14.73;;;6.70;99.90;;;;;;4934249;28;21755;-67
2023/02/13 07:58:35;;;;;;;40.90;15.77;;;6.80;99.90;;;;;;4952136;28;24358;-75
2023/02/13 08:01:08;;;;;;;;;;;6.80;99.90;;;;;;4947659;28;20637;-71
2023/02/13 08:03:35;;;;;;;35.55;14.05;;;6.80;99.90;;;;;;4951738;28;19912;-67
2023/02/13 08:06:01;;;;;;;36.50;14.82;;;6.80;99.90;;;;;;4950290;28;20447;-67
2023/02/13 08:08:27;;;;;;;34.67;14.77;;;6.90;99.90;;;;;;4951228;28;20044;-67
2023/02/13 08:13:37;;;;;;;39.80;14.45;;;6.90;99.90;;;;;;4952434;28;23955;-75
2023/02/13 08:16:03;;;;;;;37.60;14.57;;;6.90;99.90;;;;;;4932417;28;20028;-74
2023/02/13 08:18:29;;;;;;;36.70;14.87;;;7.00;99.90;;;;;;5010045;28;20057;-69
2023/02/13 08:20:55;;;;;;;36.97;14.13;;;6.90;99.90;;;;;;5033762;28;20075;-67
2023/02/13 08:23:20;;;;;;;42.43;15.47;;;7.00;99.90;;;;;;5041449;28;20431;-74
2023/02/13 08:25:48;;;;;;;35.03;13.30;;;7.00;99.90;;;;;;5045379;28;20355;-74
2023/02/13 08:28:14;;;;;;;34.92;14.55;;;7.00;99.90;;;;;;5039621;28;20025;-72
2023/02/13 08:30:40;;;;;;;34.40;13.90;;;7.10;99.90;;;;;;5035982;28;20037;-68
2023/02/13 08:33:06;;;;;;;44.70;17.03;;;7.10;99.90;;;;;;5052576;28;20159;-67
2023/02/13 08:35:32;;;;;;;44.63;16.07;;;7.20;99.90;;;;;;4991337;28;20078;-67
2023/02/13 08:38:02;;;;;;;42.60;15.73;;;7.20;99.90;;;;;;4945456;28;20025;-76
2023/02/13 08:40:27;;;;;;;39.05;15.50;;;7.20;99.90;;;;;;4941784;28;20058;-75
2023/02/13 08:43:02;;;;;;;36.40;14.87;;;7.30;99.90;;;;;;4937450;28;20662;-76
2023/02/13 08:45:28;;;;;;;44.47;16.45;;;7.30;99.90;;;;;;4920302;28;20060;-67
2023/02/13 08:47:58;;;;;;;39.83;15.90;;;7.40;99.90;;;;;;4937046;28;21331;-68
2023/02/13 08:50:25;;;;;;;44.67;16.27;;;7.40;99.90;;;;;;4938061;28;20121;-68
2023/02/13 08:52:50;;;;;;;34.80;14.63;;;7.40;99.90;;;;;;4922103;28;20116;-76
2023/02/13 08:55:16;;;;;;;38.37;15.73;;;7.40;99.90;;;;;;4936645;28;20072;-72
2023/02/13 08:57:42;;;;;;;39.37;15.20;;;7.50;99.90;;;;;;5031346;28;20017;-68
2023/02/13 09:00:08;;;;;;;40.00;15.57;;;7.40;99.90;;;;;;5050434;28;20033;-76
2023/02/13 09:02:34;;;;;;;35.75;16.02;;;7.60;99.90;;;;;;4963518;28;20043;-66
2023/02/13 09:04:59;;;;;;;34.20;15.70;;;7.60;99.90;;;;;;4919235;28;20048;-76
2023/02/13 09:07:25;;;;;;;40.13;15.63;;;7.60;99.90;;;;;;4934390;28;20033;-74
2023/02/13 09:09:51;;;;;;;38.07;15.57;;;7.70;99.90;;;;;;4954937;28;20028;-75
2023/02/13 09:12:16;;;;;;;42.20;15.50;;;7.70;99.90;;;;;;4960601;28;20186;-67
2023/02/13 09:14:42;;;;;;;43.23;17.03;;;7.80;99.90;;;;;;4952435;28;20029;-69
2023/02/13 09:17:08;;;;;;;40.73;16.57;;;7.80;99.90;;;;;;4933321;28;20027;-67
2023/02/13 09:19:33;;;;;;;34.00;14.80;;;7.90;99.90;;;;;;4917565;28;20098;-67
2023/02/13 09:21:59;;;;;;;37.97;15.63;;;8.00;99.90;;;;;;4938590;28;20650;-71
2023/02/13 09:24:25;;;;;;;37.67;15.17;;;8.00;99.90;;;;;;4939733;28;21296;-67
2023/02/13 09:26:50;;;;;;;37.93;16.07;;;8.10;99.90;;;;;;4921137;28;20056;-76
2023/02/13 09:29:16;;;;;;;41.10;15.30;;;8.20;99.90;;;;;;4935635;28;20086;-76
2023/02/13 09:31:42;;;;;;;36.57;15.80;;;8.30;99.90;;;;;;4934907;28;20036;-66
2023/02/13 09:34:07;;;;;;;42.60;16.97;;;8.50;99.90;;;;;;4937428;28;20426;-76
2023/02/13 09:36:35;;;;;;;35.73;16.00;;;8.60;99.90;;;;;;4918478;28;20044;-69
2023/02/13 09:39:01;;;;;;;33.03;15.45;;;8.80;99.90;;;;;;4934763;28;23600;-66
2023/02/13 09:41:36;;;;;;;35.05;15.68;;;8.90;99.90;;;;;;4919311;28;21156;-78
2023/02/13 09:44:33;;;;;;;34.25;15.77;;;9.10;99.90;;;;;;4940618;28;20025;-67
2023/02/13 09:47:19;;;;;;;33.47;16.48;;;9.30;99.90;;;;;;4947007;28;20017;-68
2023/02/13 09:49:52;;;;;;;33.58;14.25;;;9.50;99.90;;;;;;4943656;28;20044;-68
2023/02/13 09:52:17;;;;;;;35.80;15.73;;;9.80;99.90;;;;;;4943640;28;20074;-66
2023/02/13 09:54:43;;;;;;;34.20;15.33;;;9.80;99.90;;;;;;4945349;28;21144;-66
2023/02/13 09:57:27;;;;;;;34.45;15.93;;;9.80;99.90;;;;;;4945786;28;20162;-67
2023/02/13 10:00:01;;;;;;;33.15;15.27;;;9.70;99.90;;;;;;4929129;28;20111;-69
2023/02/13 10:02:49;;;;;;;33.15;15.35;;;9.60;99.90;;;;;;4949704;28;20024;-66
2023/02/13 10:05:56;;;;;;;31.60;13.65;;;9.70;99.90;;;;;;4951434;28;20028;-67
2023/02/13 10:08:46;;;;;;;33.22;14.68;;;9.60;99.90;;;;;;4948897;28;20032;-67
2023/02/13 10:11:31;;;;;;;38.60;15.15;;;9.80;99.90;;;;;;4943082;28;20069;-66
2023/02/13 10:14:15;;;;;;;35.38;16.83;;;10.00;99.90;;;;;;4939776;28;21053;-66
2023/02/13 10:16:57;;;;;;;33.33;14.98;;;10.00;99.90;;;;;;4941517;28;20060;-66
2023/02/13 10:19:29;;;;;;;33.20;15.13;;;10.00;99.90;;;;;;4943137;28;20793;-66
2023/02/13 10:22:08;;;;;;;33.40;15.48;;;10.00;99.90;;;;;;4941914;28;20058;-76
2023/02/13 10:25:04;;;;;;;34.60;15.68;;;9.90;99.90;;;;;;4941688;28;20064;-67
2023/02/13 10:27:42;;;;;;;33.95;16.42;;;10.20;99.90;;;;;;4940966;28;20727;-67
2023/02/13 10:30:31;;;;;;;34.53;15.80;;;10.50;99.90;;;;;;4941952;28;20025;-67
2023/02/13 10:33:18;;;;;;;33.00;15.07;;;10.50;99.90;;;;;;4943923;28;20498;-67
2023/02/13 10:35:57;;;;;;;36.03;16.25;;;10.50;99.90;;;;;;4928958;28;20028;-68
2023/02/13 10:38:23;;;;;;;32.03;15.63;;;10.50;99.90;;;;;;4946770;28;20031;-67
2023/02/13 10:41:14;;;;;;;30.83;16.30;;;10.30;99.90;;;;;;4949785;28;20067;-66
2023/02/13 10:44:12;;;;;;;28.48;14.52;;;10.30;99.90;;;;;;4948229;28;20033;-68
2023/02/13 10:46:49;;;;;;;32.95;14.38;;;10.10;99.90;;;;;;4947996;28;23638;-69
2023/02/13 10:49:18;;;;;;;31.08;14.52;;;10.20;99.90;;;;;;5040225;28;20374;-67
2023/02/13 10:52:11;;;;;;;31.35;13.90;;;10.20;99.90;;;;;;4985298;28;20033;-67
2023/02/13 10:54:46;;;;;;;29.77;12.52;;;10.50;99.90;;;;;;4934801;28;20343;-66
2023/02/13 10:57:21;;;;;;;32.53;14.80;;;10.80;99.90;;;;;;4936246;28;20032;-67
2023/02/13 10:59:55;;;;;;;29.27;15.13;;;10.80;99.90;;;;;;4936145;28;20021;-68
2023/02/13 11:02:27;;;;;;;29.90;13.98;;;10.90;99.90;;;;;;4938913;28;20989;-69
2023/02/13 11:05:13;;;;;;;34.38;14.70;;;10.80;99.90;;;;;;4938932;28;21187;-67
2023/02/13 11:07:41;;;;;;;33.50;15.30;;;10.70;99.90;;;;;;4941813;28;20032;-67
2023/02/13 11:10:20;;;;;;;26.95;14.80;;;10.80;99.90;;;;;;4925955;28;20029;-78
2023/02/13 11:12:47;;;;;;;30.33;15.43;;;11.10;99.90;;;;;;4941488;28;20029;-67
2023/02/13 11:15:25;;;;;;;35.08;14.75;;;11.30;99.90;;;;;;4937046;28;20751;-66
2023/02/13 11:17:53;;;;;;;29.98;15.18;;;11.50;99.90;;;;;;4938249;28;20127;-72
2023/02/13 11:20:36;;;;;;;28.27;13.63;;;11.40;99.90;;;;;;4922069;28;20962;-67
2023/02/13 11:23:22;;;;;;;30.00;15.55;;;11.30;99.90;;;;;;4937121;28;21533;-75
2023/02/13 11:26:02;;;;;;;33.22;16.05;;;11.40;99.90;;;;;;4939142;28;21308;-67
2023/02/13 11:28:31;;;;;;;28.17;13.90;;;11.60;99.90;;;;;;4939101;28;20040;-67
2023/02/13 11:31:30;;;;;;;28.15;14.75;;;11.80;99.90;;;;;;4941706;28;23870;-67
2023/02/13 11:33:57;;;;;;;30.65;14.82;;;11.80;99.90;;;;;;4869510;28;21442;-66
2023/02/13 11:36:30;;;;;;;30.45;15.52;;;11.90;99.90;;;;;;4873061;28;20042;-67
2023/02/13 11:39:16;;;;;;;27.83;15.05;;;11.90;99.90;;;;;;4870482;28;20994;-67
2023/02/13 11:41:44;;;;;;;31.08;15.90;;;11.80;99.90;;;;;;4859129;28;20034;-67
2023/02/13 11:44:31;;;;;;;29.27;15.65;;;11.80;99.90;;;;;;4874867;28;20030;-67
2023/02/13 11:47:02;;;;;;;28.02;15.18;;;11.90;99.90;;;;;;4873834;28;20034;-67
2023/02/13 11:49:31;;;;;;;29.55;14.95;;;12.20;99.90;;;;;;4872902;28;20043;-67
2023/02/13 11:52:03;;;;;;;28.02;13.32;;;12.30;99.90;;;;;;4874922;28;20061;-67
2023/02/13 11:54:30;;;;;;;43.47;18.90;;;12.50;99.90;;;;;;4853920;28;21475;-69
2023/02/13 11:57:16;;;;;;;30.17;14.20;;;12.70;99.90;;;;;;4869671;28;20034;-67
2023/02/13 11:59:44;;;;;;;38.05;14.30;;;12.90;99.90;;;;;;4873351;28;20100;-68
2023/02/13 12:02:14;;;;;;;25.27;13.15;;;13.10;99.90;;;;;;4874747;28;20622;-79
2023/02/13 12:04:40;;;;;;;23.85;11.27;;;13.20;99.90;;;;;;4871672;28;20123;-68
2023/02/13 12:07:26;;;;;;;23.23;12.50;;;13.40;99.90;;;;;;4851790;28;21200;-68
2023/02/13 12:10:18;;;;;;;24.57;12.40;;;13.50;99.90;;;;;;4913996;28;20033;-68
2023/02/13 12:12:54;;;;;;;28.40;13.13;;;13.50;99.90;;;;;;4938414;28;20028;-67
2023/02/13 12:15:30;;;;;;;24.00;12.63;;;13.60;99.90;;;;;;4941870;28;20056;-68
2023/02/13 12:18:15;;;;;;;26.35;12.65;;;13.50;99.90;;;;;;4945814;28;20074;-78
2023/02/13 12:21:06;;;;;;;22.98;11.80;;;13.50;99.90;;;;;;4943314;28;20044;-68
2023/02/13 12:23:35;;;;;;;27.25;12.32;;;13.60;99.90;;;;;;4843652;28;20035;-74
2023/02/13 12:26:16;;;;;;;25.23;11.45;;;13.60;99.90;;;;;;4843026;28;20190;-68
2023/02/13 12:29:19;;;;;;;26.50;12.50;;;13.80;99.90;;;;;;4843307;28;20031;-70
2023/02/13 12:32:10;;;;;;;22.50;11.32;;;13.90;99.90;;;;;;4828666;28;20027;-76
2023/02/13 12:34:42;;;;;;;26.17;12.40;;;13.90;99.90;;;;;;4840277;28;20057;-68
2023/02/13 12:37:29;;;;;;;26.30;12.88;;;13.90;99.90;;;;;;4842890;28;20023;-68
2023/02/13 12:40:12;;;;;;;22.38;11.80;;;13.80;99.90;;;;;;4844982;28;20439;-68
2023/02/13 12:43:11;;;;;;;22.20;11.25;;;13.80;99.90;;;;;;4845776;28;21257;-68
2023/02/13 12:45:45;;;;;;;24.23;11.68;;;13.80;99.90;;;;;;4828510;28;21034;-80
2023/02/13 12:48:54;;;;;;;20.08;11.43;;;13.80;99.90;;;;;;4844361;28;20350;-68
2023/02/13 12:51:23;;;;;;;23.92;12.23;;;13.80;99.90;;;;;;4845307;28;20027;-67
2023/02/13 12:54:02;;;;;;;27.55;11.60;;;13.90;99.90;;;;;;4846336;28;24182;-67
2023/02/13 12:56:34;;;;;;;27.92;11.40;;;13.90;99.90;;;;;;4843789;28;21909;-68
2023/02/13 12:59:02;;;;;;;22.13;11.52;;;13.90;99.90;;;;;;4829770;28;20447;-68
2023/02/13 13:01:52;;;;;;;21.85;11.55;;;13.90;99.90;;;;;;4923777;28;20462;-68
2023/02/13 13:04:51;;;;;;;24.42;10.93;;;14.00;99.90;;;;;;4941575;28;20031;-72
2023/02/13 13:07:26;;;;;;;23.27;11.50;;;14.10;99.90;;;;;;4874638;28;20845;-68
2023/02/13 13:10:10;;;;;;;23.50;10.88;;;14.10;99.90;;;;;;4942897;28;20028;-69
2023/02/13 13:12:51;;;;;;;19.27;10.05;;;14.20;99.90;;;;;;4922544;28;20024;-68
2023/02/13 13:15:40;;;;;;;18.58;10.07;;;14.00;99.90;;;;;;4924620;28;20029;-69
2023/02/13 13:18:17;;;;;;;19.50;10.40;;;13.90;99.90;;;;;;4944998;28;21037;-77
2023/02/13 13:20:50;;;;;;;20.08;10.50;;;13.90;99.90;;;;;;4944881;28;20025;-78
2023/02/13 13:23:31;;;;;;;20.15;10.02;;;13.90;99.90;;;;;;4945028;28;20033;-68
2023/02/13 13:26:12;;;;;;;26.52;10.65;;;13.80;99.90;;;;;;4920673;28;20669;-79
2023/02/13 13:28:41;;;;;;;20.38;10.00;;;13.90;99.90;;;;;;4924298;28;20030;-70
2023/02/13 13:31:07;;;;;;;20.92;11.38;;;13.90;99.90;;;;;;4923555;28;20024;-77
2023/02/13 13:33:35;;;;;;;20.40;10.75;;;13.80;99.90;;;;;;4921521;28;20035;-76
2023/02/13 13:36:40;;;;;;;20.65;11.05;;;13.80;99.90;;;;;;4923998;28;20461;-78
2023/02/13 13:39:28;;;;;;;19.85;10.57;;;13.80;99.90;;;;;;4911415;28;20607;-79
2023/02/13 13:42:07;;;;;;;19.75;9.88;;;13.80;99.90;;;;;;4923808;28;20428;-79
2023/02/13 13:44:55;;;;;;;21.73;10.60;;;13.90;99.90;;;;;;4922978;28;20032;-68
2023/02/13 13:47:58;;;;;;;22.63;11.82;;;13.80;99.90;;;;;;4924467;28;20029;-71